createdAt,value
2018-06-08T00:01:35.589Z,19.60
2018-06-08T00:04:05.756Z,19.50
2018-06-08T00:06:35.534Z,19.50
2018-06-08T00:09:07.053Z,19.50
2018-06-08T00:11:36.791Z,19.50
2018-06-08T00:14:06.673Z,19.50
2018-06-08T00:16:36.429Z,19.50
2018-06-08T00:19:06.298Z,19.50
2018-06-08T00:21:35.955Z,19.50
2018-06-08T00:24:05.805Z,19.40
2018-06-08T00:29:04.588Z,19.50
2018-06-08T00:31:34.376Z,19.40
2018-06-08T00:34:04.304Z,19.40
2018-06-08T00:36:33.907Z,19.40
2018-06-08T00:39:04.273Z,19.40
2018-06-08T00:41:33.914Z,19.40
2018-06-08T00:44:03.318Z,19.40
2018-06-08T00:46:32.712Z,19.40
2018-06-08T00:49:02.261Z,19.40
2018-06-08T00:51:31.762Z,19.40
2018-06-08T00:54:01.452Z,19.50
2018-06-08T00:56:41.962Z,19.50
2018-06-08T00:59:11.631Z,19.50
2018-06-08T01:01:41.428Z,19.50
2018-06-08T01:04:11.133Z,19.50
2018-06-08T01:06:40.869Z,19.50
2018-06-08T01:09:10.839Z,19.50
2018-06-08T01:11:40.578Z,19.50
2018-06-08T01:14:10.216Z,19.50
2018-06-08T01:16:39.897Z,19.50
2018-06-08T01:19:09.530Z,19.50
2018-06-08T01:21:39.256Z,19.50
2018-06-08T01:24:08.992Z,19.50
2018-06-08T01:26:38.545Z,19.50
2018-06-08T01:29:08.344Z,19.60
2018-06-08T01:31:38.022Z,19.50
2018-06-08T01:34:07.653Z,19.50
2018-06-08T01:36:37.443Z,19.50
2018-06-08T01:39:09.015Z,19.50
2018-06-08T01:41:38.695Z,19.50
2018-06-08T01:44:08.370Z,19.50
2018-06-08T01:46:38.043Z,19.50
2018-06-08T01:49:07.774Z,19.50
2018-06-08T01:51:37.476Z,19.40
2018-06-08T01:54:07.085Z,19.40
2018-06-08T01:56:36.812Z,19.40
2018-06-08T01:59:06.652Z,19.30
2018-06-08T02:01:36.197Z,19.30
2018-06-08T02:04:05.884Z,19.30
2018-06-08T02:06:35.536Z,19.30
2018-06-08T02:09:06.752Z,19.20
2018-06-08T02:11:36.447Z,19.20
2018-06-08T02:16:35.197Z,19.10
2018-06-08T02:19:05.063Z,19.20
2018-06-08T02:21:34.717Z,19.10
2018-06-08T02:24:04.412Z,19.10
2018-06-08T02:26:34.097Z,19.10
2018-06-08T02:29:03.963Z,19.00
2018-06-08T02:31:33.722Z,19.10
2018-06-08T02:34:03.378Z,19.00
2018-06-08T02:36:33.141Z,19.00
2018-06-08T02:39:02.795Z,19.00
2018-06-08T02:41:32.599Z,19.00
2018-06-08T02:44:02.317Z,18.90
2018-06-08T02:46:32.067Z,18.90
2018-06-08T02:49:02.978Z,18.90
2018-06-08T02:54:01.851Z,19.00
2018-06-08T02:56:31.546Z,19.00
2018-06-08T02:59:01.505Z,19.00
2018-06-08T03:01:31.184Z,18.90
2018-06-08T03:04:00.809Z,18.90
2018-06-08T03:06:30.496Z,18.90
2018-06-08T03:09:00.732Z,18.80
2018-06-08T03:11:30.424Z,18.80
2018-06-08T03:14:00.116Z,18.90
2018-06-08T03:16:29.770Z,18.90
2018-06-08T03:18:59.536Z,18.90
2018-06-08T03:21:29.198Z,19.00
2018-06-08T03:23:58.877Z,19.00
2018-06-08T03:26:28.614Z,19.00
2018-06-08T03:28:58.317Z,19.10
2018-06-08T03:31:28.189Z,19.10
2018-06-08T03:33:57.953Z,19.10
2018-06-08T03:36:27.758Z,19.10
2018-06-08T03:38:57.568Z,19.20
2018-06-08T03:41:27.349Z,19.20
2018-06-08T03:43:56.972Z,19.20
2018-06-08T03:46:26.589Z,19.20
2018-06-08T03:48:56.186Z,19.20
2018-06-08T03:51:25.865Z,19.20
2018-06-08T03:53:55.521Z,19.20
2018-06-08T03:56:25.284Z,19.30
2018-06-08T03:58:54.983Z,19.30
2018-06-08T04:01:24.814Z,19.40
2018-06-08T04:03:54.556Z,19.30
2018-06-08T04:06:24.229Z,19.30
2018-06-08T04:08:53.875Z,19.30
2018-06-08T04:11:23.372Z,19.30
2018-06-08T04:13:53.053Z,19.30
2018-06-08T04:16:22.707Z,19.30
2018-06-08T04:18:52.453Z,19.40
2018-06-08T04:21:22.133Z,19.40
2018-06-08T04:23:51.946Z,19.40
2018-06-08T04:26:21.705Z,19.40
2018-06-08T04:28:51.359Z,19.40
2018-06-08T04:31:21.117Z,19.40
2018-06-08T04:33:50.774Z,19.50
2018-06-08T04:36:20.461Z,19.50
2018-06-08T04:38:50.048Z,19.50
2018-06-08T04:41:19.701Z,19.50
2018-06-08T04:43:49.566Z,19.50
2018-06-08T04:46:19.195Z,19.50
2018-06-08T04:48:48.821Z,19.60
2018-06-08T04:51:18.547Z,19.60
2018-06-08T04:53:48.155Z,19.60
2018-06-08T04:56:17.912Z,19.50
2018-06-08T04:58:47.567Z,19.50
2018-06-08T05:01:17.295Z,19.50
2018-06-08T05:03:47.097Z,19.50
2018-06-08T05:06:16.776Z,19.50
2018-06-08T05:08:46.462Z,19.40
2018-06-08T05:11:16.227Z,19.50
2018-06-08T05:13:46.029Z,19.50
2018-06-08T05:16:15.730Z,19.50
2018-06-08T05:18:45.455Z,19.50
2018-06-08T05:21:15.220Z,19.60
2018-06-08T05:23:44.869Z,19.70
2018-06-08T05:26:14.750Z,19.70
2018-06-08T05:28:44.556Z,19.70
2018-06-08T05:33:43.376Z,19.70
2018-06-08T05:36:13.020Z,19.80
2018-06-08T05:38:42.898Z,19.80
2018-06-08T05:41:12.639Z,19.80
2018-06-08T05:43:42.323Z,19.80
2018-06-08T05:46:12.017Z,19.90
2018-06-08T05:48:41.982Z,19.90
2018-06-08T05:51:11.664Z,20.00
2018-06-08T05:53:41.248Z,20.00
2018-06-08T05:56:10.948Z,20.00
2018-06-08T06:01:09.506Z,20.10
2018-06-08T06:03:39.346Z,20.10
2018-06-08T06:06:09.019Z,20.10
2018-06-08T06:08:38.713Z,20.10
2018-06-08T06:11:08.601Z,20.10
2018-06-08T06:13:38.352Z,20.10
2018-06-08T06:16:08.217Z,20.10
2018-06-08T06:18:37.878Z,20.20
2018-06-08T06:21:07.630Z,20.20
2018-06-08T06:23:37.294Z,20.20
2018-06-08T06:26:07.317Z,20.20
2018-06-08T06:28:37.017Z,20.20
2018-06-08T06:31:06.840Z,20.30
2018-06-08T06:33:36.404Z,20.30
2018-06-08T06:36:06.157Z,20.40
2018-06-08T06:38:36.015Z,20.40
2018-06-08T06:41:05.781Z,20.40
2018-06-08T06:43:35.553Z,20.40
2018-06-08T06:46:05.297Z,20.40
2018-06-08T06:48:34.989Z,20.40
2018-06-08T06:51:04.811Z,20.30
2018-06-08T06:53:34.639Z,20.40
2018-06-08T06:56:04.239Z,20.50
2018-06-08T06:58:34.057Z,20.60
2018-06-08T07:01:03.765Z,20.70
2018-06-08T07:03:33.476Z,20.70
2018-06-08T07:06:03.273Z,20.70
2018-06-08T07:08:33.056Z,20.80
2018-06-08T07:11:02.812Z,21.00
2018-06-08T07:13:32.502Z,21.00
2018-06-08T07:16:02.226Z,21.00
2018-06-08T07:18:31.917Z,21.00
2018-06-08T07:21:01.547Z,21.10
2018-06-08T07:23:31.363Z,21.20
2018-06-08T07:26:01.120Z,21.30
2018-06-08T07:28:30.781Z,21.30
2018-06-08T07:31:00.539Z,21.40
2018-06-08T07:35:59.372Z,21.80
2018-06-08T07:38:28.982Z,21.80
2018-06-08T07:40:58.868Z,22.00
2018-06-08T07:43:28.540Z,23.30
2018-06-08T07:45:58.392Z,24.50
2018-06-08T07:48:28.039Z,25.10
2018-06-08T07:50:57.909Z,25.30
2018-06-08T07:53:27.559Z,25.30
2018-06-08T07:55:57.207Z,25.10
2018-06-08T07:58:26.933Z,24.80
2018-06-08T08:00:56.683Z,24.50
2018-06-08T08:03:26.464Z,24.40
2018-06-08T08:05:56.114Z,24.10
2018-06-08T08:08:25.677Z,23.80
2018-06-08T08:10:55.321Z,23.70
2018-06-08T08:13:24.928Z,23.60
2018-06-08T08:15:54.600Z,23.40
2018-06-08T08:18:30.516Z,23.30
2018-06-08T08:21:00.420Z,23.30
2018-06-08T08:23:30.176Z,23.20
2018-06-08T08:25:59.725Z,23.20
2018-06-08T08:28:29.277Z,23.20
2018-06-08T08:30:58.943Z,23.20
2018-06-08T08:33:28.435Z,23.20
2018-06-08T08:35:58.010Z,23.10
2018-06-08T08:40:56.704Z,23.30
2018-06-08T08:43:26.329Z,23.60
2018-06-08T08:45:56.127Z,24.10
2018-06-08T08:48:25.677Z,25.40
2018-06-08T08:50:55.301Z,26.80
2018-06-08T08:53:25.059Z,27.90
2018-06-08T08:55:54.674Z,29.00
2018-06-08T08:58:24.372Z,29.70
2018-06-08T09:03:22.911Z,29.00
2018-06-08T09:05:52.535Z,28.80
2018-06-08T09:08:22.294Z,28.60
2018-06-08T09:13:20.932Z,27.80
2018-06-08T09:15:50.442Z,27.70
2018-06-08T09:18:20.185Z,28.00
2018-06-08T09:20:49.753Z,28.30
2018-06-08T09:23:19.320Z,28.20
2018-06-08T09:25:48.868Z,28.00
2018-06-08T09:28:18.368Z,28.40
2018-06-08T09:30:47.837Z,28.90
2018-06-08T09:35:46.467Z,29.00
2018-06-08T09:38:15.998Z,30.10
2018-06-08T09:40:45.551Z,30.70
2018-06-08T09:43:15.263Z,30.60
2018-06-08T09:48:14.222Z,31.70
2018-06-08T09:50:43.980Z,31.10
2018-06-08T09:53:13.353Z,31.00
2018-06-08T09:55:42.686Z,31.20
2018-06-08T09:58:12.042Z,31.50
2018-06-08T10:00:42.754Z,32.30
2018-06-08T10:03:12.074Z,32.30
2018-06-08T10:05:41.433Z,32.00
2018-06-08T10:08:10.765Z,31.80
2018-06-08T10:10:40.176Z,31.30
2018-06-08T10:13:09.550Z,31.00
2018-06-08T10:15:38.897Z,30.40
2018-06-08T10:18:08.266Z,29.90
2018-06-08T10:20:37.620Z,29.50
2018-06-08T10:23:06.982Z,29.10
2018-06-08T10:25:36.316Z,28.90
2018-06-08T10:28:05.692Z,28.60
2018-06-08T10:30:35.044Z,28.50
2018-06-08T10:33:04.412Z,28.20
2018-06-08T10:35:33.768Z,28.10
2018-06-08T10:38:03.902Z,27.90
2018-06-08T10:40:33.784Z,27.80
2018-06-08T10:43:03.116Z,27.70
2018-06-08T10:45:32.462Z,27.60
2018-06-08T10:48:01.814Z,27.50
2018-06-08T10:50:31.163Z,27.40
2018-06-08T10:53:00.493Z,27.40
2018-06-08T10:55:29.841Z,27.60
2018-06-08T10:57:59.173Z,27.70
2018-06-08T11:00:28.524Z,27.90
2018-06-08T11:02:57.882Z,28.20
2018-06-08T11:05:27.223Z,28.40
2018-06-08T11:07:56.586Z,28.40
2018-06-08T11:10:25.909Z,28.60
2018-06-08T11:12:55.393Z,28.70
2018-06-08T11:15:24.734Z,28.70
2018-06-08T11:17:54.236Z,28.60
2018-06-08T11:20:23.804Z,28.40
2018-06-08T11:22:53.327Z,28.30
2018-06-08T11:25:23.105Z,28.30
2018-06-08T11:27:52.436Z,28.40
2018-06-08T11:30:22.193Z,28.50
2018-06-08T11:32:51.754Z,28.60
2018-06-08T11:35:21.276Z,28.70
2018-06-08T11:37:50.889Z,28.80
2018-06-08T11:40:20.242Z,28.80
2018-06-08T11:42:49.593Z,28.60
2018-06-08T11:45:18.933Z,28.40
2018-06-08T11:47:48.313Z,28.30
2018-06-08T11:50:17.669Z,28.40
2018-06-08T11:52:47.016Z,28.30
2018-06-08T11:55:16.533Z,28.20
2018-06-08T11:57:46.329Z,28.20
2018-06-08T12:00:15.903Z,28.30
2018-06-08T12:02:45.292Z,28.20
2018-06-08T12:05:15.063Z,28.20
2018-06-08T12:07:44.614Z,28.30
2018-06-08T12:12:43.519Z,28.30
2018-06-08T12:15:13.887Z,28.30
2018-06-08T12:17:43.217Z,28.30
2018-06-08T12:20:12.637Z,28.40
2018-06-08T12:22:42.353Z,28.40
2018-06-08T12:25:12.092Z,28.50
2018-06-08T12:27:41.477Z,28.40
2018-06-08T12:30:11.107Z,28.40
2018-06-08T12:32:40.936Z,28.30
2018-06-08T12:35:10.313Z,28.20
2018-06-08T12:37:39.991Z,28.20
2018-06-08T12:40:09.817Z,28.10
2018-06-08T12:42:39.474Z,28.10
2018-06-08T12:45:08.860Z,28.00
2018-06-08T12:47:38.672Z,28.00
2018-06-08T12:50:08.049Z,28.00
2018-06-08T12:52:37.422Z,28.10
2018-06-08T12:55:07.089Z,28.20
2018-06-08T12:57:36.780Z,28.20
2018-06-08T13:00:06.669Z,28.30
2018-06-08T13:02:36.048Z,28.30
2018-06-08T13:05:05.684Z,28.30
2018-06-08T13:07:35.098Z,28.40
2018-06-08T13:10:04.550Z,28.30
2018-06-08T13:12:33.943Z,28.30
2018-06-08T13:15:03.330Z,28.30
2018-06-08T13:17:32.720Z,28.30
2018-06-08T13:20:02.109Z,28.40
2018-06-08T13:22:31.513Z,28.40
2018-06-08T13:25:01.310Z,28.40
2018-06-08T13:27:30.967Z,28.40
2018-06-08T13:30:00.574Z,28.30
2018-06-08T13:32:30.038Z,28.20
2018-06-08T13:34:59.476Z,28.20
2018-06-08T13:37:28.879Z,28.10
2018-06-08T13:39:58.372Z,28.10
2018-06-08T13:42:27.773Z,28.10
2018-06-08T13:44:57.152Z,28.10
2018-06-08T13:47:26.573Z,28.20
2018-06-08T13:49:56.295Z,28.20
2018-06-08T13:52:25.675Z,28.10
2018-06-08T13:54:55.081Z,28.10
2018-06-08T13:57:24.501Z,28.10
2018-06-08T13:59:54.453Z,28.10
2018-06-08T14:02:24.233Z,28.10
2018-06-08T14:04:53.624Z,28.20
2018-06-08T14:07:23.513Z,28.10
2018-06-08T14:09:53.275Z,28.10
2018-06-08T14:12:23.397Z,28.10
2018-06-08T14:14:53.308Z,28.10
2018-06-08T14:17:23.188Z,28.00
2018-06-08T14:19:53.205Z,27.90
2018-06-08T14:22:23.202Z,27.90
2018-06-08T14:24:53.144Z,27.80
2018-06-08T14:27:23.694Z,27.80
2018-06-08T14:29:53.410Z,27.80
2018-06-08T14:32:23.190Z,27.80
2018-06-08T14:34:52.918Z,27.80
2018-06-08T14:37:22.356Z,27.80
2018-06-08T14:39:52.988Z,27.80
2018-06-08T14:42:22.367Z,27.70
2018-06-08T14:44:52.224Z,27.90
2018-06-08T14:47:22.218Z,27.80
2018-06-08T14:49:51.610Z,27.80
2018-06-08T14:52:21.089Z,27.70
2018-06-08T14:54:50.496Z,27.70
2018-06-08T14:57:19.897Z,27.70
2018-06-08T14:59:49.284Z,27.60
2018-06-08T15:02:18.777Z,27.60
2018-06-08T15:04:48.528Z,27.50
2018-06-08T15:07:18.326Z,27.50
2018-06-08T15:09:47.742Z,27.50
2018-06-08T15:12:17.252Z,27.50
2018-06-08T15:14:47.060Z,27.60
2018-06-08T15:17:16.582Z,27.60
2018-06-08T15:19:46.079Z,27.50
2018-06-08T15:22:15.944Z,27.50
2018-06-08T15:24:45.934Z,27.50
2018-06-08T15:27:15.337Z,27.50
2018-06-08T15:34:43.817Z,27.50
2018-06-08T15:37:13.504Z,27.40
2018-06-08T15:39:42.896Z,27.40
2018-06-08T15:42:13.472Z,27.30
2018-06-08T15:44:43.513Z,27.30
2018-06-08T15:49:42.370Z,27.20
2018-06-08T15:52:12.377Z,27.30
2018-06-08T15:54:41.889Z,27.30
2018-06-08T15:57:11.820Z,27.30
2018-06-08T15:59:41.213Z,27.30
2018-06-08T16:02:11.489Z,27.20
2018-06-08T16:04:40.877Z,27.20
2018-06-08T16:07:10.251Z,27.20
2018-06-08T16:09:40.375Z,27.20
2018-06-08T16:12:10.781Z,27.10
2018-06-08T16:14:41.118Z,27.10
2018-06-08T16:17:10.628Z,27.00
2018-06-08T16:19:40.127Z,27.00
2018-06-08T16:22:09.528Z,27.00
2018-06-08T16:24:39.056Z,27.00
2018-06-08T16:27:08.639Z,27.10
2018-06-08T16:29:38.251Z,27.10
2018-06-08T16:32:07.645Z,27.10
2018-06-08T16:34:37.083Z,27.10
2018-06-08T16:37:06.494Z,27.10
2018-06-08T16:39:35.872Z,27.00
2018-06-08T16:42:05.305Z,26.90
2018-06-08T16:44:34.732Z,26.90
2018-06-08T16:47:04.107Z,26.90
2018-06-08T16:49:34.087Z,26.90
2018-06-08T16:52:03.940Z,26.90
2018-06-08T16:54:34.014Z,26.90
2018-06-08T16:57:05.982Z,26.90
2018-06-08T16:59:36.747Z,26.90
2018-06-08T17:02:06.967Z,26.90
2018-06-08T17:04:37.397Z,26.80
2018-06-08T17:07:07.187Z,26.80
2018-06-08T17:09:37.262Z,26.70
2018-06-08T17:12:07.791Z,26.70
2018-06-08T17:14:37.808Z,26.70
2018-06-08T17:17:07.806Z,26.70
2018-06-08T17:19:38.589Z,26.60
2018-06-08T17:22:10.032Z,26.60
2018-06-08T17:24:40.982Z,26.50
2018-06-08T17:27:10.565Z,26.60
2018-06-08T17:29:39.937Z,26.50
2018-06-08T17:32:09.302Z,26.50
2018-06-08T17:34:38.701Z,26.50
2018-06-08T17:37:08.129Z,26.50
2018-06-08T17:39:37.531Z,26.40
2018-06-08T17:42:07.033Z,26.40
2018-06-08T17:44:36.964Z,26.40
2018-06-08T17:47:06.509Z,26.40
2018-06-08T17:49:35.900Z,26.40
2018-06-08T17:52:05.313Z,26.40
2018-06-08T17:54:34.725Z,26.30
2018-06-08T17:57:04.181Z,26.30
2018-06-08T17:59:33.573Z,26.30
2018-06-08T18:04:32.126Z,26.20
2018-06-08T18:07:01.900Z,26.20
2018-06-08T18:09:31.578Z,26.20
2018-06-08T18:12:00.993Z,26.20
2018-06-08T18:14:30.427Z,26.20
2018-06-08T18:16:59.821Z,26.10
2018-06-08T18:19:29.233Z,26.00
2018-06-08T18:21:58.670Z,26.10
2018-06-08T18:24:28.341Z,26.00
2018-06-08T18:26:57.750Z,26.00
2018-06-08T18:29:27.202Z,26.00
2018-06-08T18:31:56.752Z,25.90
2018-06-08T18:34:26.153Z,25.90
2018-06-08T18:36:55.752Z,25.80
2018-06-08T18:39:25.272Z,25.80
2018-06-08T18:41:54.662Z,25.70
2018-06-08T18:44:24.066Z,25.70
2018-06-08T18:46:53.465Z,25.70
2018-06-08T18:49:22.844Z,25.60
2018-06-08T18:51:52.237Z,25.50
2018-06-08T18:54:21.681Z,25.50
2018-06-08T18:56:51.069Z,25.40
2018-06-08T18:59:20.450Z,25.40
2018-06-08T19:01:49.876Z,25.40
2018-06-08T19:04:19.325Z,25.20
2018-06-08T19:06:48.760Z,25.20
2018-06-08T19:09:18.521Z,25.10
2018-06-08T19:11:47.924Z,25.00
2018-06-08T19:14:17.598Z,25.00
2018-06-08T19:16:47.296Z,24.80
2018-06-08T19:19:16.699Z,24.80
2018-06-08T19:21:46.103Z,24.70
2018-06-08T19:24:16.548Z,24.60
2018-06-08T19:29:16.094Z,24.40
2018-06-08T19:31:45.468Z,24.40
2018-06-08T19:34:14.977Z,24.30
2018-06-08T19:36:44.365Z,24.20
2018-06-08T19:39:13.800Z,24.20
2018-06-08T19:41:43.766Z,24.10
2018-06-08T19:44:13.652Z,24.10
2018-06-08T19:46:43.233Z,24.10
2018-06-08T19:49:12.865Z,24.10
2018-06-08T19:51:42.597Z,24.00
2018-06-08T19:54:12.462Z,24.10
2018-06-08T19:56:41.851Z,24.00
2018-06-08T19:59:11.238Z,24.00
2018-06-08T20:01:40.640Z,24.00
2018-06-08T20:04:10.033Z,23.90
2018-06-08T20:06:39.469Z,23.90
2018-06-08T20:09:09.190Z,23.80
2018-06-08T20:11:38.575Z,23.70
2018-06-08T20:14:07.987Z,23.70
2018-06-08T20:16:37.417Z,23.60
2018-06-08T20:19:06.860Z,23.60
2018-06-08T20:21:36.261Z,23.60
2018-06-08T20:24:05.685Z,23.50
2018-06-08T20:26:35.084Z,23.50
2018-06-08T20:29:05.148Z,23.50
2018-06-08T20:31:34.525Z,23.50
2018-06-08T20:34:04.001Z,23.50
2018-06-08T20:36:33.413Z,23.50
2018-06-08T20:39:02.820Z,23.50
2018-06-08T20:41:32.188Z,23.50
2018-06-08T20:44:03.106Z,23.50
2018-06-08T20:46:32.697Z,23.50
2018-06-08T20:49:02.165Z,23.50
2018-06-08T20:51:31.651Z,23.50
2018-06-08T20:54:01.023Z,23.50
2018-06-08T20:56:31.024Z,23.60
2018-06-08T20:59:00.425Z,23.60
2018-06-08T21:01:29.827Z,23.60
2018-06-08T21:03:59.198Z,23.60
2018-06-08T21:06:28.608Z,23.60
2018-06-08T21:08:58.002Z,23.60
2018-06-08T21:11:27.403Z,23.60
2018-06-08T21:13:56.808Z,23.60
2018-06-08T21:16:26.237Z,23.60
2018-06-08T21:18:55.682Z,23.50
2018-06-08T21:21:25.647Z,23.50
2018-06-08T21:23:55.383Z,23.50
2018-06-08T21:26:24.809Z,23.50
2018-06-08T21:28:54.192Z,23.50
2018-06-08T21:31:23.629Z,23.40
2018-06-08T21:33:53.020Z,23.40
2018-06-08T21:36:22.402Z,23.40
2018-06-08T21:38:52.684Z,23.30
2018-06-08T21:41:22.064Z,23.30
2018-06-08T21:43:51.448Z,23.30
2018-06-08T21:46:21.321Z,23.40
2018-06-08T21:48:50.715Z,23.40
2018-06-08T21:51:20.089Z,23.40
2018-06-08T21:53:49.468Z,23.40
2018-06-08T21:56:19.285Z,23.40
2018-06-08T21:58:49.043Z,23.40
2018-06-08T22:01:18.857Z,23.30
2018-06-08T22:03:48.365Z,23.30
2018-06-08T22:06:18.230Z,23.30
2018-06-08T22:08:47.730Z,23.30
2018-06-08T22:11:18.089Z,23.40
2018-06-08T22:16:18.186Z,23.30
2018-06-08T22:18:48.392Z,23.30
2018-06-08T22:21:18.683Z,23.40
2018-06-08T22:23:48.942Z,23.40
2018-06-08T22:26:19.128Z,23.40
2018-06-08T22:28:49.386Z,23.30
2018-06-08T22:31:19.904Z,23.30
2018-06-08T22:33:50.288Z,23.20
2018-06-08T22:36:19.949Z,23.10
2018-06-08T22:38:50.493Z,23.10
2018-06-08T22:41:21.184Z,23.00
2018-06-08T22:43:51.649Z,22.90
2018-06-08T22:46:22.253Z,22.80
2018-06-08T22:48:52.477Z,22.70
2018-06-08T22:51:22.687Z,22.60
2018-06-08T22:53:52.829Z,22.50
2018-06-08T22:56:22.832Z,22.40
2018-06-08T22:58:53.185Z,22.30
2018-06-08T23:01:23.891Z,22.20
2018-06-08T23:03:54.292Z,22.20
2018-06-08T23:06:25.049Z,22.10
2018-06-08T23:08:54.628Z,22.10
2018-06-08T23:11:24.237Z,22.10
2018-06-08T23:13:53.903Z,22.10
2018-06-08T23:16:23.657Z,22.10
2018-06-08T23:21:22.115Z,22.20
2018-06-08T23:23:51.780Z,22.10
2018-06-08T23:26:21.532Z,22.00
2018-06-08T23:28:51.099Z,21.80
2018-06-08T23:31:20.889Z,21.70
2018-06-08T23:33:50.540Z,21.60
2018-06-08T23:36:20.132Z,21.40
2018-06-08T23:38:49.708Z,21.30
2018-06-08T23:41:19.479Z,21.20
2018-06-08T23:43:49.211Z,21.10
2018-06-08T23:46:18.944Z,20.90
2018-06-08T23:48:48.814Z,20.70
2018-06-08T23:51:18.677Z,20.50
2018-06-08T23:53:48.454Z,20.30
2018-06-08T23:56:18.113Z,20.10
2018-06-08T23:58:47.740Z,19.80
